sensor_id;sensor_type;location;lat;lon;timestamp;temperature;humidity
6986;DHT22;3533;51.246;6.850;2024-01-07T00:00:19;19.50;43.10
6986;DHT22;3533;51.246;6.850;2024-01-07T00:02:44;19.50;43.10
6986;DHT22;3533;51.246;6.850;2024-01-07T00:05:10;19.50;43.10
6986;DHT22;3533;51.246;6.850;2024-01-07T00:07:35;19.50;43.10
6986;DHT22;3533;51.246;6.850;2024-01-07T00:10:01;19.40;43.00
6986;DHT22;3533;51.246;6.850;2024-01-07T00:12:26;19.40;43.00
6986;DHT22;3533;51.246;6.850;2024-01-07T00:14:52;19.40;43.00
6986;DHT22;3533;51.246;6.850;2024-01-07T00:17:17;19.50;43.10
6986;DHT22;3533;51.246;6.850;2024-01-07T00:19:43;19.50;43.10
6986;DHT22;3533;51.246;6.850;2024-01-07T00:22:09;19.40;43.10
6986;DHT22;3533;51.246;6.850;2024-01-07T00:24:34;19.50;43.10
6986;DHT22;3533;51.246;6.850;2024-01-07T00:27:00;19.50;43.00
6986;DHT22;3533;51.246;6.850;2024-01-07T00:29:25;19.50;43.10
6986;DHT22;3533;51.246;6.850;2024-01-07T00:31:51;19.40;43.00
6986;DHT22;3533;51.246;6.850;2024-01-07T00:34:16;19.40;43.00
6986;DHT22;3533;51.246;6.850;2024-01-07T00:36:42;19.40;43.10
6986;DHT22;3533;51.246;6.850;2024-01-07T00:39:07;19.40;43.00
6986;DHT22;3533;51.246;6.850;2024-01-07T00:41:33;19.40;43.00
6986;DHT22;3533;51.246;6.850;2024-01-07T00:43:58;19.40;43.00
6986;DHT22;3533;51.246;6.850;2024-01-07T00:46:24;19.40;43.00
6986;DHT22;3533;51.246;6.850;2024-01-07T00:48:49;19.40;43.00
6986;DHT22;3533;51.246;6.850;2024-01-07T00:51:15;19.40;43.00
6986;DHT22;3533;51.246;6.850;2024-01-07T00:53:40;19.40;43.00
6986;DHT22;3533;51.246;6.850;2024-01-07T00:56:06;19.40;43.00
6986;DHT22;3533;51.246;6.850;2024-01-07T00:58:32;19.50;43.10
6986;DHT22;3533;51.246;6.850;2024-01-07T01:00:58;19.40;43.00
6986;DHT22;3533;51.246;6.850;2024-01-07T01:03:25;19.40;43.00
6986;DHT22;3533;51.246;6.850;2024-01-07T01:05:51;19.40;43.00
6986;DHT22;3533;51.246;6.850;2024-01-07T01:08:17;19.50;43.00
6986;DHT22;3533;51.246;6.850;2024-01-07T01:10:42;19.40;43.00
6986;DHT22;3533;51.246;6.850;2024-01-07T01:13:08;19.40;43.00
6986;DHT22;3533;51.246;6.850;2024-01-07T01:15:34;19.40;43.00
6986;DHT22;3533;51.246;6.850;2024-01-07T01:17:59;19.40;43.00
6986;DHT22;3533;51.246;6.850;2024-01-07T01:20:25;19.40;43.00
6986;DHT22;3533;51.246;6.850;2024-01-07T01:22:50;19.40;43.00
6986;DHT22;3533;51.246;6.850;2024-01-07T01:25:16;19.40;43.00
6986;DHT22;3533;51.246;6.850;2024-01-07T01:27:41;19.40;43.00
6986;DHT22;3533;51.246;6.850;2024-01-07T01:30:07;19.40;43.00
6986;DHT22;3533;51.246;6.850;2024-01-07T01:32:33;19.40;42.90
6986;DHT22;3533;51.246;6.850;2024-01-07T01:34:59;19.40;42.90
6986;DHT22;3533;51.246;6.850;2024-01-07T01:37:24;19.40;42.90
6986;DHT22;3533;51.246;6.850;2024-01-07T01:39:50;19.40;42.80
6986;DHT22;3533;51.246;6.850;2024-01-07T01:42:15;19.40;42.90
6986;DHT22;3533;51.246;6.850;2024-01-07T01:44:41;19.40;42.80
6986;DHT22;3533;51.246;6.850;2024-01-07T01:47:07;19.40;42.90
6986;DHT22;3533;51.246;6.850;2024-01-07T01:49:33;19.40;42.90
6986;DHT22;3533;51.246;6.850;2024-01-07T01:52:01;19.40;42.80
6986;DHT22;3533;51.246;6.850;2024-01-07T01:54:26;19.40;42.90
6986;DHT22;3533;51.246;6.850;2024-01-07T01:56:52;19.40;42.80
6986;DHT22;3533;51.246;6.850;2024-01-07T01:59:18;19.40;42.80
6986;DHT22;3533;51.246;6.850;2024-01-07T02:01:45;19.40;42.80
6986;DHT22;3533;51.246;6.850;2024-01-07T02:04:10;19.40;42.80
6986;DHT22;3533;51.246;6.850;2024-01-07T02:06:36;19.40;42.80
6986;DHT22;3533;51.246;6.850;2024-01-07T02:09:02;19.40;42.80
6986;DHT22;3533;51.246;6.850;2024-01-07T02:11:29;19.40;42.80
6986;DHT22;3533;51.246;6.850;2024-01-07T02:13:54;19.40;42.80
6986;DHT22;3533;51.246;6.850;2024-01-07T02:16:29;19.40;42.70
6986;DHT22;3533;51.246;6.850;2024-01-07T02:18:54;19.40;42.70
6986;DHT22;3533;51.246;6.850;2024-01-07T02:21:20;19.40;42.70
6986;DHT22;3533;51.246;6.850;2024-01-07T02:23:46;19.40;42.70
6986;DHT22;3533;51.246;6.850;2024-01-07T02:26:11;19.40;42.70
6986;DHT22;3533;51.246;6.850;2024-01-07T02:28:37;19.40;42.70
6986;DHT22;3533;51.246;6.850;2024-01-07T02:31:02;19.40;42.80
6986;DHT22;3533;51.246;6.850;2024-01-07T02:33:28;19.40;42.70
6986;DHT22;3533;51.246;6.850;2024-01-07T02:35:54;19.40;42.80
6986;DHT22;3533;51.246;6.850;2024-01-07T02:38:20;19.40;42.70
6986;DHT22;3533;51.246;6.850;2024-01-07T02:40:45;19.40;42.80
6986;DHT22;3533;51.246;6.850;2024-01-07T02:43:11;19.40;42.70
6986;DHT22;3533;51.246;6.850;2024-01-07T02:45:36;19.40;42.70
6986;DHT22;3533;51.246;6.850;2024-01-07T02:48:02;19.40;43.50
6986;DHT22;3533;51.246;6.850;2024-01-07T02:50:28;19.40;42.70
6986;DHT22;3533;51.246;6.850;2024-01-07T02:52:53;19.40;42.70
6986;DHT22;3533;51.246;6.850;2024-01-07T02:55:19;19.40;42.80
6986;DHT22;3533;51.246;6.850;2024-01-07T02:57:44;19.40;42.70
6986;DHT22;3533;51.246;6.850;2024-01-07T03:00:10;19.40;42.70
6986;DHT22;3533;51.246;6.850;2024-01-07T03:02:36;19.40;42.70
6986;DHT22;3533;51.246;6.850;2024-01-07T03:05:02;19.40;42.70
6986;DHT22;3533;51.246;6.850;2024-01-07T03:07:27;19.40;42.70
6986;DHT22;3533;51.246;6.850;2024-01-07T03:09:53;19.40;42.70
6986;DHT22;3533;51.246;6.850;2024-01-07T03:12:18;19.40;42.80
6986;DHT22;3533;51.246;6.850;2024-01-07T03:14:44;19.40;42.70
6986;DHT22;3533;51.246;6.850;2024-01-07T03:17:10;19.40;42.70
6986;DHT22;3533;51.246;6.850;2024-01-07T03:19:38;19.40;42.70
6986;DHT22;3533;51.246;6.850;2024-01-07T03:22:04;19.40;42.60
6986;DHT22;3533;51.246;6.850;2024-01-07T03:24:31;19.40;42.60
6986;DHT22;3533;51.246;6.850;2024-01-07T03:26:56;19.40;42.60
6986;DHT22;3533;51.246;6.850;2024-01-07T03:29:22;19.40;42.60
6986;DHT22;3533;51.246;6.850;2024-01-07T03:31:47;19.40;42.60
6986;DHT22;3533;51.246;6.850;2024-01-07T03:34:13;19.40;42.60
6986;DHT22;3533;51.246;6.850;2024-01-07T03:36:38;19.40;42.60
6986;DHT22;3533;51.246;6.850;2024-01-07T03:39:04;19.40;42.60
6986;DHT22;3533;51.246;6.850;2024-01-07T03:41:29;19.40;42.60
6986;DHT22;3533;51.246;6.850;2024-01-07T03:43:55;19.40;42.60
6986;DHT22;3533;51.246;6.850;2024-01-07T03:46:22;19.40;42.60
6986;DHT22;3533;51.246;6.850;2024-01-07T03:48:47;19.40;42.60
6986;DHT22;3533;51.246;6.850;2024-01-07T03:51:13;19.40;42.60
6986;DHT22;3533;51.246;6.850;2024-01-07T03:53:38;19.40;42.60
6986;DHT22;3533;51.246;6.850;2024-01-07T03:56:04;19.40;42.50
6986;DHT22;3533;51.246;6.850;2024-01-07T03:58:31;19.40;42.60
6986;DHT22;3533;51.246;6.850;2024-01-07T04:00:56;19.30;42.50
6986;DHT22;3533;51.246;6.850;2024-01-07T04:03:22;19.40;42.50
6986;DHT22;3533;51.246;6.850;2024-01-07T04:05:47;19.40;42.50
6986;DHT22;3533;51.246;6.850;2024-01-07T04:08:13;19.30;42.50
6986;DHT22;3533;51.246;6.850;2024-01-07T04:10:41;19.40;42.50
6986;DHT22;3533;51.246;6.850;2024-01-07T04:13:07;19.30;43.20
6986;DHT22;3533;51.246;6.850;2024-01-07T04:15:33;19.40;42.50
6986;DHT22;3533;51.246;6.850;2024-01-07T04:18:01;19.40;42.50
6986;DHT22;3533;51.246;6.850;2024-01-07T04:20:28;19.40;42.50
6986;DHT22;3533;51.246;6.850;2024-01-07T04:22:55;19.30;42.40
6986;DHT22;3533;51.246;6.850;2024-01-07T04:25:20;19.40;42.50
6986;DHT22;3533;51.246;6.850;2024-01-07T04:27:46;19.40;42.50
6986;DHT22;3533;51.246;6.850;2024-01-07T04:30:12;19.30;42.40
6986;DHT22;3533;51.246;6.850;2024-01-07T04:32:37;19.40;42.40
6986;DHT22;3533;51.246;6.850;2024-01-07T04:35:03;19.40;42.50
6986;DHT22;3533;51.246;6.850;2024-01-07T04:37:29;19.40;42.50
6986;DHT22;3533;51.246;6.850;2024-01-07T04:39:54;19.30;42.50
6986;DHT22;3533;51.246;6.850;2024-01-07T04:42:20;19.40;42.40
6986;DHT22;3533;51.246;6.850;2024-01-07T04:44:45;19.40;42.50
6986;DHT22;3533;51.246;6.850;2024-01-07T04:47:28;19.40;42.40
6986;DHT22;3533;51.246;6.850;2024-01-07T04:49:54;19.40;42.40
6986;DHT22;3533;51.246;6.850;2024-01-07T04:52:21;19.40;42.40
6986;DHT22;3533;51.246;6.850;2024-01-07T04:54:47;19.40;42.40
6986;DHT22;3533;51.246;6.850;2024-01-07T04:57:12;19.40;42.40
6986;DHT22;3533;51.246;6.850;2024-01-07T04:59:38;19.40;42.40
6986;DHT22;3533;51.246;6.850;2024-01-07T05:02:03;19.40;42.30
6986;DHT22;3533;51.246;6.850;2024-01-07T05:04:29;19.40;42.30
6986;DHT22;3533;51.246;6.850;2024-01-07T05:06:54;19.40;42.30
6986;DHT22;3533;51.246;6.850;2024-01-07T05:09:20;19.40;42.20
6986;DHT22;3533;51.246;6.850;2024-01-07T05:11:46;19.40;42.30
6986;DHT22;3533;51.246;6.850;2024-01-07T05:14:11;19.40;42.20
6986;DHT22;3533;51.246;6.850;2024-01-07T05:16:37;19.40;43.00
6986;DHT22;3533;51.246;6.850;2024-01-07T05:19:03;19.40;42.20
6986;DHT22;3533;51.246;6.850;2024-01-07T05:21:28;19.40;42.10
6986;DHT22;3533;51.246;6.850;2024-01-07T05:23:54;19.40;42.10
6986;DHT22;3533;51.246;6.850;2024-01-07T05:26:20;19.40;42.10
6986;DHT22;3533;51.246;6.850;2024-01-07T05:28:46;19.40;42.00
6986;DHT22;3533;51.246;6.850;2024-01-07T05:31:16;19.40;42.10
6986;DHT22;3533;51.246;6.850;2024-01-07T05:33:42;19.40;42.00
6986;DHT22;3533;51.246;6.850;2024-01-07T05:36:08;19.40;42.00
6986;DHT22;3533;51.246;6.850;2024-01-07T05:38:33;19.40;42.00
6986;DHT22;3533;51.246;6.850;2024-01-07T05:40:59;19.40;42.00
6986;DHT22;3533;51.246;6.850;2024-01-07T05:43:25;19.40;42.00
6986;DHT22;3533;51.246;6.850;2024-01-07T05:45:50;19.50;42.00
6986;DHT22;3533;51.246;6.850;2024-01-07T05:48:16;19.40;42.00
6986;DHT22;3533;51.246;6.850;2024-01-07T05:50:41;19.50;42.00
6986;DHT22;3533;51.246;6.850;2024-01-07T05:53:07;19.50;41.90
6986;DHT22;3533;51.246;6.850;2024-01-07T05:55:32;19.50;42.00
6986;DHT22;3533;51.246;6.850;2024-01-07T05:57:58;19.50;42.00
6986;DHT22;3533;51.246;6.850;2024-01-07T06:00:24;19.50;41.90
6986;DHT22;3533;51.246;6.850;2024-01-07T06:02:49;19.50;41.90
6986;DHT22;3533;51.246;6.850;2024-01-07T06:05:15;19.50;41.90
6986;DHT22;3533;51.246;6.850;2024-01-07T06:07:40;19.50;41.90
6986;DHT22;3533;51.246;6.850;2024-01-07T06:10:06;19.40;41.80
6986;DHT22;3533;51.246;6.850;2024-01-07T06:12:32;19.50;41.80
6986;DHT22;3533;51.246;6.850;2024-01-07T06:14:57;19.50;41.80
6986;DHT22;3533;51.246;6.850;2024-01-07T06:17:23;19.50;41.80
6986;DHT22;3533;51.246;6.850;2024-01-07T06:19:49;19.50;41.80
6986;DHT22;3533;51.246;6.850;2024-01-07T06:22:14;19.50;41.80
6986;DHT22;3533;51.246;6.850;2024-01-07T06:24:40;19.50;41.80
6986;DHT22;3533;51.246;6.850;2024-01-07T06:27:06;19.50;41.70
6986;DHT22;3533;51.246;6.850;2024-01-07T06:29:31;19.50;41.70
6986;DHT22;3533;51.246;6.850;2024-01-07T06:31:57;19.50;41.70
6986;DHT22;3533;51.246;6.850;2024-01-07T06:34:22;19.50;41.70
6986;DHT22;3533;51.246;6.850;2024-01-07T06:36:48;19.50;41.70
6986;DHT22;3533;51.246;6.850;2024-01-07T06:39:14;19.50;41.70
6986;DHT22;3533;51.246;6.850;2024-01-07T06:41:39;19.50;41.70
6986;DHT22;3533;51.246;6.850;2024-01-07T06:44:05;19.50;41.60
6986;DHT22;3533;51.246;6.850;2024-01-07T06:46:30;19.50;41.60
6986;DHT22;3533;51.246;6.850;2024-01-07T06:48:56;19.50;41.60
6986;DHT22;3533;51.246;6.850;2024-01-07T06:51:22;19.50;41.60
6986;DHT22;3533;51.246;6.850;2024-01-07T06:53:47;19.50;41.60
6986;DHT22;3533;51.246;6.850;2024-01-07T06:56:13;19.50;41.60
6986;DHT22;3533;51.246;6.850;2024-01-07T06:58:39;19.50;41.60
6986;DHT22;3533;51.246;6.850;2024-01-07T07:01:07;19.50;41.70
6986;DHT22;3533;51.246;6.850;2024-01-07T07:03:32;19.50;41.70
6986;DHT22;3533;51.246;6.850;2024-01-07T07:05:58;19.50;41.60
6986;DHT22;3533;51.246;6.850;2024-01-07T07:08:23;19.50;42.30
6986;DHT22;3533;51.246;6.850;2024-01-07T07:10:50;19.50;41.50
6986;DHT22;3533;51.246;6.850;2024-01-07T07:13:15;19.50;41.60
6986;DHT22;3533;51.246;6.850;2024-01-07T07:15:42;19.50;41.60
6986;DHT22;3533;51.246;6.850;2024-01-07T07:18:07;19.50;41.60
6986;DHT22;3533;51.246;6.850;2024-01-07T07:20:33;19.50;41.50
6986;DHT22;3533;51.246;6.850;2024-01-07T07:22:59;19.50;41.50
6986;DHT22;3533;51.246;6.850;2024-01-07T07:25:24;19.50;41.50
6986;DHT22;3533;51.246;6.850;2024-01-07T07:27:50;19.50;41.50
6986;DHT22;3533;51.246;6.850;2024-01-07T07:30:16;19.50;41.50
6986;DHT22;3533;51.246;6.850;2024-01-07T07:32:41;19.50;41.40
6986;DHT22;3533;51.246;6.850;2024-01-07T07:35:07;19.50;41.50
6986;DHT22;3533;51.246;6.850;2024-01-07T07:37:33;19.50;41.50
6986;DHT22;3533;51.246;6.850;2024-01-07T07:39:58;19.50;41.40
6986;DHT22;3533;51.246;6.850;2024-01-07T07:42:24;19.50;41.30
6986;DHT22;3533;51.246;6.850;2024-01-07T07:44:49;19.50;41.40
6986;DHT22;3533;51.246;6.850;2024-01-07T07:47:16;19.50;41.40
6986;DHT22;3533;51.246;6.850;2024-01-07T07:49:42;19.50;41.30
6986;DHT22;3533;51.246;6.850;2024-01-07T07:52:08;19.50;41.40
6986;DHT22;3533;51.246;6.850;2024-01-07T07:54:37;19.50;41.40
6986;DHT22;3533;51.246;6.850;2024-01-07T07:57:03;19.50;41.40
6986;DHT22;3533;51.246;6.850;2024-01-07T07:59:29;19.50;41.30
6986;DHT22;3533;51.246;6.850;2024-01-07T08:01:54;19.50;41.30
6986;DHT22;3533;51.246;6.850;2024-01-07T08:04:20;19.50;41.30
6986;DHT22;3533;51.246;6.850;2024-01-07T08:06:46;19.50;41.30
6986;DHT22;3533;51.246;6.850;2024-01-07T08:09:11;19.50;41.30
6986;DHT22;3533;51.246;6.850;2024-01-07T08:11:37;19.50;41.30
6986;DHT22;3533;51.246;6.850;2024-01-07T08:14:02;19.50;41.30
6986;DHT22;3533;51.246;6.850;2024-01-07T08:16:28;19.50;41.40
6986;DHT22;3533;51.246;6.850;2024-01-07T08:18:53;19.50;41.40
6986;DHT22;3533;51.246;6.850;2024-01-07T08:21:22;19.50;41.30
6986;DHT22;3533;51.246;6.850;2024-01-07T08:23:48;19.50;41.30
6986;DHT22;3533;51.246;6.850;2024-01-07T08:26:20;19.50;41.30
6986;DHT22;3533;51.246;6.850;2024-01-07T08:28:46;19.50;41.40
6986;DHT22;3533;51.246;6.850;2024-01-07T08:31:12;19.50;41.40
6986;DHT22;3533;51.246;6.850;2024-01-07T08:33:37;19.50;42.20
6986;DHT22;3533;51.246;6.850;2024-01-07T08:36:03;19.50;41.40
6986;DHT22;3533;51.246;6.850;2024-01-07T08:38:29;19.50;41.50
6986;DHT22;3533;51.246;6.850;2024-01-07T08:40:55;19.50;41.50
6986;DHT22;3533;51.246;6.850;2024-01-07T08:43:21;19.50;41.50
6986;DHT22;3533;51.246;6.850;2024-01-07T08:45:46;19.50;41.50
6986;DHT22;3533;51.246;6.850;2024-01-07T08:48:12;19.50;41.50
6986;DHT22;3533;51.246;6.850;2024-01-07T08:50:38;19.50;42.20
6986;DHT22;3533;51.246;6.850;2024-01-07T08:53:04;19.40;41.40
6986;DHT22;3533;51.246;6.850;2024-01-07T08:55:30;19.50;41.50
6986;DHT22;3533;51.246;6.850;2024-01-07T08:57:55;19.40;41.40
6986;DHT22;3533;51.246;6.850;2024-01-07T09:00:21;19.40;41.60
6986;DHT22;3533;51.246;6.850;2024-01-07T09:02:51;19.50;41.20
6986;DHT22;3533;51.246;6.850;2024-01-07T09:05:17;19.50;41.10
6986;DHT22;3533;51.246;6.850;2024-01-07T09:07:42;19.60;41.20
6986;DHT22;3533;51.246;6.850;2024-01-07T09:10:08;19.60;41.20
6986;DHT22;3533;51.246;6.850;2024-01-07T09:12:38;19.50;41.20
6986;DHT22;3533;51.246;6.850;2024-01-07T09:15:07;19.50;41.30
6986;DHT22;3533;51.246;6.850;2024-01-07T09:17:36;19.50;41.40
6986;DHT22;3533;51.246;6.850;2024-01-07T09:20:04;19.50;41.60
6986;DHT22;3533;51.246;6.850;2024-01-07T09:22:32;19.40;41.50
6986;DHT22;3533;51.246;6.850;2024-01-07T09:24:58;19.40;41.40
6986;DHT22;3533;51.246;6.850;2024-01-07T09:27:23;19.40;41.50
6986;DHT22;3533;51.246;6.850;2024-01-07T09:29:49;19.40;41.50
6986;DHT22;3533;51.246;6.850;2024-01-07T09:32:15;19.40;41.60
6986;DHT22;3533;51.246;6.850;2024-01-07T09:34:40;19.40;41.60
6986;DHT22;3533;51.246;6.850;2024-01-07T09:37:06;19.40;41.50
6986;DHT22;3533;51.246;6.850;2024-01-07T09:39:31;19.40;41.50
6986;DHT22;3533;51.246;6.850;2024-01-07T09:41:57;19.40;41.50
6986;DHT22;3533;51.246;6.850;2024-01-07T09:44:23;19.40;41.50
6986;DHT22;3533;51.246;6.850;2024-01-07T09:46:50;19.40;41.40
6986;DHT22;3533;51.246;6.850;2024-01-07T09:49:17;19.40;41.40
6986;DHT22;3533;51.246;6.850;2024-01-07T09:51:45;19.40;41.40
6986;DHT22;3533;51.246;6.850;2024-01-07T09:54:15;19.40;41.40
6986;DHT22;3533;51.246;6.850;2024-01-07T09:56:50;19.40;41.40
6986;DHT22;3533;51.246;6.850;2024-01-07T09:59:17;19.40;41.40
6986;DHT22;3533;51.246;6.850;2024-01-07T10:01:44;19.40;41.30
6986;DHT22;3533;51.246;6.850;2024-01-07T10:04:11;19.40;41.30
6986;DHT22;3533;51.246;6.850;2024-01-07T10:06:36;19.40;41.30
6986;DHT22;3533;51.246;6.850;2024-01-07T10:09:03;19.40;41.30
6986;DHT22;3533;51.246;6.850;2024-01-07T10:11:31;19.40;41.30
6986;DHT22;3533;51.246;6.850;2024-01-07T10:13:57;19.40;41.20
6986;DHT22;3533;51.246;6.850;2024-01-07T10:16:22;19.40;41.20
6986;DHT22;3533;51.246;6.850;2024-01-07T10:18:48;19.40;41.20
6986;DHT22;3533;51.246;6.850;2024-01-07T10:21:14;19.40;41.10
6986;DHT22;3533;51.246;6.850;2024-01-07T10:23:40;19.40;41.10
6986;DHT22;3533;51.246;6.850;2024-01-07T10:26:06;19.40;41.10
6986;DHT22;3533;51.246;6.850;2024-01-07T10:28:32;19.50;41.10
6986;DHT22;3533;51.246;6.850;2024-01-07T10:30:57;19.50;41.10
6986;DHT22;3533;51.246;6.850;2024-01-07T10:33:23;19.40;41.00
6986;DHT22;3533;51.246;6.850;2024-01-07T10:35:57;19.50;41.10
6986;DHT22;3533;51.246;6.850;2024-01-07T10:38:25;19.50;41.10
6986;DHT22;3533;51.246;6.850;2024-01-07T10:40:52;19.40;41.10
6986;DHT22;3533;51.246;6.850;2024-01-07T10:43:20;19.50;41.10
6986;DHT22;3533;51.246;6.850;2024-01-07T10:45:47;19.50;41.20
6986;DHT22;3533;51.246;6.850;2024-01-07T10:48:17;19.40;41.10
6986;DHT22;3533;51.246;6.850;2024-01-07T10:50:45;19.50;41.20
6986;DHT22;3533;51.246;6.850;2024-01-07T10:53:18;19.40;41.10
6986;DHT22;3533;51.246;6.850;2024-01-07T10:55:52;19.50;42.00
6986;DHT22;3533;51.246;6.850;2024-01-07T10:58:20;19.50;41.20
6986;DHT22;3533;51.246;6.850;2024-01-07T11:00:47;19.50;41.20
6986;DHT22;3533;51.246;6.850;2024-01-07T11:05:52;19.40;41.20
6986;DHT22;3533;51.246;6.850;2024-01-07T11:08:26;19.50;41.20
6986;DHT22;3533;51.246;6.850;2024-01-07T11:10:58;19.40;41.20
6986;DHT22;3533;51.246;6.850;2024-01-07T11:13:36;19.50;41.30
6986;DHT22;3533;51.246;6.850;2024-01-07T11:16:07;19.40;41.20
6986;DHT22;3533;51.246;6.850;2024-01-07T11:18:47;19.40;41.30
6986;DHT22;3533;51.246;6.850;2024-01-07T11:21:25;19.40;41.30
6986;DHT22;3533;51.246;6.850;2024-01-07T11:23:51;19.40;41.30
6986;DHT22;3533;51.246;6.850;2024-01-07T11:26:19;19.40;41.30
6986;DHT22;3533;51.246;6.850;2024-01-07T11:28:46;19.40;41.40
6986;DHT22;3533;51.246;6.850;2024-01-07T11:31:13;19.40;41.40
6986;DHT22;3533;51.246;6.850;2024-01-07T11:33:41;19.40;41.40
6986;DHT22;3533;51.246;6.850;2024-01-07T11:36:07;19.40;41.50
6986;DHT22;3533;51.246;6.850;2024-01-07T11:38:34;19.40;41.40
6986;DHT22;3533;51.246;6.850;2024-01-07T11:41:01;19.40;41.40
6986;DHT22;3533;51.246;6.850;2024-01-07T11:43:28;19.40;41.50
6986;DHT22;3533;51.246;6.850;2024-01-07T11:45:54;19.40;41.50
6986;DHT22;3533;51.246;6.850;2024-01-07T11:48:20;19.40;41.50
6986;DHT22;3533;51.246;6.850;2024-01-07T11:50:46;19.40;41.50
6986;DHT22;3533;51.246;6.850;2024-01-07T11:53:12;19.40;41.50
6986;DHT22;3533;51.246;6.850;2024-01-07T11:55:38;19.40;41.50
6986;DHT22;3533;51.246;6.850;2024-01-07T11:58:04;19.40;41.60
6986;DHT22;3533;51.246;6.850;2024-01-07T12:00:33;19.40;41.00
6986;DHT22;3533;51.246;6.850;2024-01-07T12:03:03;19.40;41.50
6986;DHT22;3533;51.246;6.850;2024-01-07T12:05:29;19.40;41.50
6986;DHT22;3533;51.246;6.850;2024-01-07T12:07:55;19.40;41.60
6986;DHT22;3533;51.246;6.850;2024-01-07T12:10:23;19.40;41.60
6986;DHT22;3533;51.246;6.850;2024-01-07T12:12:49;19.40;41.60
6986;DHT22;3533;51.246;6.850;2024-01-07T12:15:16;19.40;41.60
6986;DHT22;3533;51.246;6.850;2024-01-07T12:17:47;19.40;41.50
6986;DHT22;3533;51.246;6.850;2024-01-07T12:20:15;19.40;41.60
6986;DHT22;3533;51.246;6.850;2024-01-07T12:22:40;19.40;41.70
6986;DHT22;3533;51.246;6.850;2024-01-07T12:25:06;19.40;41.60
6986;DHT22;3533;51.246;6.850;2024-01-07T12:27:33;19.40;41.60
6986;DHT22;3533;51.246;6.850;2024-01-07T12:29:59;19.40;41.60
6986;DHT22;3533;51.246;6.850;2024-01-07T12:32:30;19.40;41.60
6986;DHT22;3533;51.246;6.850;2024-01-07T12:34:59;19.40;41.60
6986;DHT22;3533;51.246;6.850;2024-01-07T12:37:28;19.40;41.60
6986;DHT22;3533;51.246;6.850;2024-01-07T12:39:54;19.40;41.60
6986;DHT22;3533;51.246;6.850;2024-01-07T12:42:20;19.40;41.60
6986;DHT22;3533;51.246;6.850;2024-01-07T12:44:49;19.40;41.60
6986;DHT22;3533;51.246;6.850;2024-01-07T12:47:15;19.40;41.60
6986;DHT22;3533;51.246;6.850;2024-01-07T12:49:41;19.40;41.60
6986;DHT22;3533;51.246;6.850;2024-01-07T12:52:07;19.40;41.60
6986;DHT22;3533;51.246;6.850;2024-01-07T12:54:32;19.40;41.50
6986;DHT22;3533;51.246;6.850;2024-01-07T12:56:59;19.40;41.60
6986;DHT22;3533;51.246;6.850;2024-01-07T12:59:24;19.40;41.60
6986;DHT22;3533;51.246;6.850;2024-01-07T13:01:50;19.40;41.50
6986;DHT22;3533;51.246;6.850;2024-01-07T13:04:16;19.40;42.30
6986;DHT22;3533;51.246;6.850;2024-01-07T13:06:42;19.40;41.50
6986;DHT22;3533;51.246;6.850;2024-01-07T13:09:07;19.40;41.50
6986;DHT22;3533;51.246;6.850;2024-01-07T13:11:34;19.30;41.40
6986;DHT22;3533;51.246;6.850;2024-01-07T13:14:00;19.40;41.50
6986;DHT22;3533;51.246;6.850;2024-01-07T13:16:27;19.40;41.50
6986;DHT22;3533;51.246;6.850;2024-01-07T13:18:56;19.40;41.50
6986;DHT22;3533;51.246;6.850;2024-01-07T13:21:22;19.40;41.40
6986;DHT22;3533;51.246;6.850;2024-01-07T13:23:48;19.30;42.10
6986;DHT22;3533;51.246;6.850;2024-01-07T13:26:14;19.30;41.30
6986;DHT22;3533;51.246;6.850;2024-01-07T13:28:40;19.40;41.40
6986;DHT22;3533;51.246;6.850;2024-01-07T13:31:06;19.40;41.40
6986;DHT22;3533;51.246;6.850;2024-01-07T13:33:32;19.40;41.40
6986;DHT22;3533;51.246;6.850;2024-01-07T13:35:58;19.30;41.30
6986;DHT22;3533;51.246;6.850;2024-01-07T13:38:24;19.40;41.40
6986;DHT22;3533;51.246;6.850;2024-01-07T13:40:50;19.40;41.30
6986;DHT22;3533;51.246;6.850;2024-01-07T13:43:15;19.40;41.30
6986;DHT22;3533;51.246;6.850;2024-01-07T13:45:41;19.40;41.30
6986;DHT22;3533;51.246;6.850;2024-01-07T13:48:07;19.30;41.20
6986;DHT22;3533;51.246;6.850;2024-01-07T13:50:33;19.40;41.20
6986;DHT22;3533;51.246;6.850;2024-01-07T13:52:58;19.30;41.20
6986;DHT22;3533;51.246;6.850;2024-01-07T13:55:24;19.30;41.10
6986;DHT22;3533;51.246;6.850;2024-01-07T13:57:49;19.30;41.10
6986;DHT22;3533;51.246;6.850;2024-01-07T14:00:15;19.30;41.10
6986;DHT22;3533;51.246;6.850;2024-01-07T14:02:44;19.40;41.20
6986;DHT22;3533;51.246;6.850;2024-01-07T14:05:11;19.30;41.10
6986;DHT22;3533;51.246;6.850;2024-01-07T14:07:37;19.30;41.10
6986;DHT22;3533;51.246;6.850;2024-01-07T14:10:06;19.30;41.10
6986;DHT22;3533;51.246;6.850;2024-01-07T14:12:34;19.30;41.00
6986;DHT22;3533;51.246;6.850;2024-01-07T14:14:59;19.30;41.00
6986;DHT22;3533;51.246;6.850;2024-01-07T14:17:25;19.30;41.10
6986;DHT22;3533;51.246;6.850;2024-01-07T14:19:51;19.30;41.00
6986;DHT22;3533;51.246;6.850;2024-01-07T14:22:22;19.30;41.00
6986;DHT22;3533;51.246;6.850;2024-01-07T14:24:48;19.30;41.00
6986;DHT22;3533;51.246;6.850;2024-01-07T14:27:17;19.30;41.10
6986;DHT22;3533;51.246;6.850;2024-01-07T14:29:43;19.30;41.10
6986;DHT22;3533;51.246;6.850;2024-01-07T14:32:10;19.30;41.00
6986;DHT22;3533;51.246;6.850;2024-01-07T14:34:38;19.30;41.00
6986;DHT22;3533;51.246;6.850;2024-01-07T14:37:05;19.30;41.00
6986;DHT22;3533;51.246;6.850;2024-01-07T14:39:30;19.30;41.00
6986;DHT22;3533;51.246;6.850;2024-01-07T14:41:56;19.30;41.00
6986;DHT22;3533;51.246;6.850;2024-01-07T14:44:21;19.30;40.90
6986;DHT22;3533;51.246;6.850;2024-01-07T14:46:47;19.30;41.00
6986;DHT22;3533;51.246;6.850;2024-01-07T14:49:13;19.30;41.00
6986;DHT22;3533;51.246;6.850;2024-01-07T14:51:39;19.30;41.00
6986;DHT22;3533;51.246;6.850;2024-01-07T14:54:04;19.30;40.90
6986;DHT22;3533;51.246;6.850;2024-01-07T14:56:30;19.30;40.90
6986;DHT22;3533;51.246;6.850;2024-01-07T14:58:55;19.30;40.90
6986;DHT22;3533;51.246;6.850;2024-01-07T15:01:21;19.30;40.90
6986;DHT22;3533;51.246;6.850;2024-01-07T15:03:46;19.30;40.90
6986;DHT22;3533;51.246;6.850;2024-01-07T15:06:12;19.30;40.90
6986;DHT22;3533;51.246;6.850;2024-01-07T15:08:41;19.30;40.80
6986;DHT22;3533;51.246;6.850;2024-01-07T15:11:06;19.30;40.80
6986;DHT22;3533;51.246;6.850;2024-01-07T15:13:32;19.30;41.60
6986;DHT22;3533;51.246;6.850;2024-01-07T15:15:59;19.30;40.80
6986;DHT22;3533;51.246;6.850;2024-01-07T15:18:25;19.30;40.80
6986;DHT22;3533;51.246;6.850;2024-01-07T15:20:50;19.30;40.80
6986;DHT22;3533;51.246;6.850;2024-01-07T15:23:17;19.30;40.80
6986;DHT22;3533;51.246;6.850;2024-01-07T15:25:43;19.30;40.80
6986;DHT22;3533;51.246;6.850;2024-01-07T15:28:08;19.30;40.90
6986;DHT22;3533;51.246;6.850;2024-01-07T15:30:34;19.30;40.90
6986;DHT22;3533;51.246;6.850;2024-01-07T15:32:59;19.30;40.90
6986;DHT22;3533;51.246;6.850;2024-01-07T15:35:25;19.30;41.00
6986;DHT22;3533;51.246;6.850;2024-01-07T15:37:51;19.30;41.00
6986;DHT22;3533;51.246;6.850;2024-01-07T15:40:16;19.30;41.00
6986;DHT22;3533;51.246;6.850;2024-01-07T15:42:42;19.30;41.10
6986;DHT22;3533;51.246;6.850;2024-01-07T15:45:08;19.40;41.20
6986;DHT22;3533;51.246;6.850;2024-01-07T15:47:34;19.40;41.20
6986;DHT22;3533;51.246;6.850;2024-01-07T15:50:00;19.30;41.20
6986;DHT22;3533;51.246;6.850;2024-01-07T15:52:26;19.30;41.20
6986;DHT22;3533;51.246;6.850;2024-01-07T15:54:53;19.40;41.30
6986;DHT22;3533;51.246;6.850;2024-01-07T15:57:19;19.40;41.30